Time;durP1;ratioP1;P1;durP2;ratioP2;P2;SDS_P1;SDS_P2;PMS_P1;PMS_P2;Temp;Humidity;BMP_temperature;BMP_pressure;BME280_temperature;BME280_humidity;BME280_pressure;Samples;Min_cycle;Max_cycle;Signal;HPM_P1;HPM_P2
2024/03/01 00:01:39;;;;;;;;;;;;;;;8.13;100.00;100734.41;5011717;28;20008;-75
2024/03/01 00:04:05;;;;;;;;;;;;;;;8.02;100.00;100745.84;5019711;28;20459;-76
2024/03/01 00:06:30;;;;;;;;;;;;;;;8.01;100.00;100749.19;5020998;28;19924;-75
2024/03/01 00:08:55;;;;;;;;;;;;;;;7.99;100.00;100750.78;5016124;28;19917;-76
2024/03/01 00:11:21;;;;;;;;;;;;;;;7.87;100.00;100739.06;5013054;28;20858;-74
2024/03/01 00:13:46;;;;;;;;;;;;;;;7.87;100.00;100743.34;5023550;28;19955;-73
2024/03/01 00:16:12;;;;;;;;;;;;;;;7.83;100.00;100744.88;5024068;28;19940;-74
2024/03/01 00:18:37;;;;;;;;;;;;;;;7.83;100.00;100741.44;5024665;28;19936;-74
2024/03/01 00:21:03;;;;;;;;;;;;;;;7.80;100.00;100733.53;5017689;28;19969;-77
2024/03/01 00:23:28;;;;;;;;;;;;;;;7.75;100.00;100733.28;5021693;28;20000;-75
2024/03/01 00:25:54;;;;;;;;;;;;;;;7.78;100.00;100730.91;5027171;28;19917;-76
2024/03/01 00:28:20;;;;;;;;;;;;;;;7.82;100.00;100729.38;5022717;28;19925;-73
2024/03/01 00:30:45;;;;;;;;;;;;;;;7.92;100.00;100727.38;5010133;28;19919;-75
2024/03/01 00:33:11;;;;;;;;;;;;;;;7.95;100.00;100718.94;5014991;28;19917;-73
2024/03/01 00:35:36;;;;;;;;;;;;;;;8.01;100.00;100718.34;5013325;28;19913;-75
2024/03/01 00:38:01;;;;;;;;;;;;;;;8.07;100.00;100716.09;5013291;28;19913;-75
2024/03/01 00:40:27;;;;;;;;;;;;;;;8.03;100.00;100717.63;5012701;28;19925;-76
2024/03/01 00:42:52;;;;;;;;;;;;;;;8.00;100.00;100712.34;5012987;28;20008;-76
2024/03/01 00:45:20;;;;;;;;;;;;;;;8.02;100.00;100695.28;5014191;28;19967;-78
2024/03/01 00:47:49;;;;;;;;;;;;;;;8.05;100.00;100694.53;5013710;28;20020;-78
2024/03/01 00:50:23;;;;;;;;;;;;;;;7.99;100.00;100678.81;5013499;28;19918;-74
2024/03/01 00:52:49;;;;;;;;;;;;;;;7.95;100.00;100682.94;5012564;28;19925;-73
2024/03/01 00:55:14;;;;;;;;;;;;;;;7.93;100.00;100687.09;5011820;28;19924;-75
2024/03/01 00:57:40;;;;;;;;;;;;;;;7.94;100.00;100687.19;5012308;28;19921;-71
2024/03/01 01:00:05;;;;;;;;;;;;;;;7.90;100.00;100674.97;5007961;28;19913;-75
2024/03/01 01:02:31;;;;;;;;;;;;;;;7.77;100.00;100657.16;5001132;28;20309;-74
2024/03/01 01:10:51;;;;;;;;;;;;;;;7.85;100.00;100639.56;5099670;23;19976;-76
2024/03/01 01:13:16;;;;;;;;;;;;;;;7.83;100.00;100639.47;5009960;28;20455;-76
2024/03/01 01:15:42;;;;;;;;;;;;;;;7.85;100.00;100635.31;5013497;28;19915;-74
2024/03/01 01:18:09;;;;;;;;;;;;;;;7.77;100.00;100629.75;5004150;28;19956;-78
2024/03/01 01:20:35;;;;;;;;;;;;;;;7.81;100.00;100622.22;5012386;28;19948;-73
2024/03/01 01:23:01;;;;;;;;;;;;;;;7.78;100.00;100603.25;5013454;28;19913;-75
2024/03/01 01:25:26;;;;;;;;;;;;;;;7.82;100.00;100606.88;5012819;28;20270;-73
2024/03/01 01:27:52;;;;;;;;;;;;;;;7.84;100.00;100584.72;5012609;28;19921;-75
2024/03/01 01:30:17;;;;;;;;;;;;;;;7.80;100.00;100585.38;5012719;28;19921;-75
2024/03/01 01:32:43;;;;;;;;;;;;;;;7.77;100.00;100609.19;5012505;28;19921;-75
2024/03/01 01:35:08;;;;;;;;;;;;;;;7.83;100.00;100628.34;5012773;28;19937;-73
2024/03/01 01:37:33;;;;;;;;;;;;;;;7.88;100.00;100640.59;5013244;28;20369;-73
2024/03/01 01:39:59;;;;;;;;;;;;;;;7.92;100.00;100660.53;5012400;28;20008;-73
2024/03/01 01:42:24;;;;;;;;;;;;;;;7.91;100.00;100648.47;5012766;28;20000;-72
2024/03/01 01:44:49;;;;;;;;;;;;;;;7.89;100.00;100650.06;5013195;28;19920;-77
2024/03/01 01:47:15;;;;;;;;;;;;;;;7.93;100.00;100635.69;5012568;28;20331;-71
2024/03/01 01:49:40;;;;;;;;;;;;;;;7.91;100.00;100634.72;5002830;28;20426;-73
2024/03/01 01:52:07;;;;;;;;;;;;;;;7.97;100.00;100647.88;5008114;28;19975;-74
2024/03/01 01:54:33;;;;;;;;;;;;;;;8.02;100.00;100648.13;5012325;28;19952;-73
2024/03/01 01:56:58;;;;;;;;;;;;;;;8.03;100.00;100637.03;5012432;28;20286;-77
2024/03/01 01:59:24;;;;;;;;;;;;;;;8.08;100.00;100627.88;5012209;28;20360;-73
2024/03/01 02:01:49;;;;;;;;;;;;;;;8.09;100.00;100627.06;5012325;28;19918;-74
2024/03/01 02:04:14;;;;;;;;;;;;;;;8.07;100.00;100626.09;5012277;28;19988;-73
2024/03/01 02:06:44;;;;;;;;;;;;;;;8.04;100.00;100623.38;5012114;28;20384;-73
2024/03/01 02:09:17;;;;;;;;;;;;;;;7.97;100.00;100623.88;5016926;28;19929;-75
2024/03/01 02:11:43;;;;;;;;;;;;;;;8.01;100.00;100631.84;5026059;28;19917;-72
2024/03/01 02:14:09;;;;;;;;;;;;;;;8.10;100.00;100633.97;5021275;28;19944;-71
2024/03/01 02:16:35;;;;;;;;;;;;;;;8.18;100.00;100630.06;5024548;28;19999;-74
2024/03/01 02:19:01;;;;;;;;;;;;;;;8.21;100.00;100634.47;5021594;28;19925;-72
2024/03/01 02:21:32;;;;;;;;;;;;;;;8.27;100.00;100637.34;5004278;28;19918;-74
2024/03/01 02:23:58;;;;;;;;;;;;;;;8.30;100.00;100646.91;5025263;28;19923;-72
2024/03/01 02:26:23;;;;;;;;;;;;;;;8.37;100.00;100643.84;5020654;28;20016;-74
2024/03/01 02:28:48;;;;;;;;;;;;;;;8.38;100.00;100641.31;5020102;28;19994;-74
2024/03/01 02:31:15;;;;;;;;;;;;;;;8.35;100.00;100624.84;5019538;28;19913;-74
2024/03/01 02:33:40;;;;;;;;;;;;;;;8.37;100.00;100620.69;5019208;28;19985;-75
2024/03/01 02:36:06;;;;;;;;;;;;;;;8.30;100.00;100610.91;5024001;28;19933;-75
2024/03/01 02:38:31;;;;;;;;;;;;;;;8.18;100.00;100606.94;5003327;28;19913;-73
2024/03/01 02:40:56;;;;;;;;;;;;;;;8.13;100.00;100597.25;5021121;28;19975;-75
2024/03/01 02:43:22;;;;;;;;;;;;;;;8.08;100.00;100600.44;5019519;28;19916;-75
2024/03/01 02:45:48;;;;;;;;;;;;;;;8.10;100.00;100598.84;5022481;28;19913;-75
2024/03/01 02:48:14;;;;;;;;;;;;;;;8.18;100.00;100588.06;5027001;28;19924;-75
2024/03/01 02:50:39;;;;;;;;;;;;;;;8.21;100.00;100598.47;5007874;28;19917;-73
2024/03/01 02:53:05;;;;;;;;;;;;;;;8.21;100.00;100595.91;5020722;28;19945;-75
2024/03/01 02:55:30;;;;;;;;;;;;;;;8.21;100.00;100599.38;5022030;28;19928;-76
2024/03/01 02:57:56;;;;;;;;;;;;;;;8.24;100.00;100596.94;5019003;28;19912;-74
2024/03/01 03:00:22;;;;;;;;;;;;;;;8.23;100.00;100582.31;5018762;28;20004;-73
2024/03/01 03:02:48;;;;;;;;;;;;;;;8.29;100.00;100593.69;5019652;28;20015;-74
2024/03/01 03:05:13;;;;;;;;;;;;;;;8.08;100.00;100594.44;5024957;28;20004;-72
2024/03/01 03:07:39;;;;;;;;;;;;;;;8.09;100.00;100593.63;5020493;28;19952;-75
2024/03/01 03:10:04;;;;;;;;;;;;;;;8.11;100.00;100599.72;5002433;28;19921;-77
2024/03/01 03:12:30;;;;;;;;;;;;;;;8.04;100.00;100584.81;5010580;28;19917;-75
2024/03/01 03:14:55;;;;;;;;;;;;;;;8.03;100.00;100598.47;5010355;28;19917;-74
2024/03/01 03:17:22;;;;;;;;;;;;;;;7.91;100.00;100601.31;5010285;28;19952;-75
2024/03/01 03:19:48;;;;;;;;;;;;;;;7.93;100.00;100602.28;5010663;28;20395;-73
2024/03/01 03:22:14;;;;;;;;;;;;;;;8.03;100.00;100611.34;5010361;28;19921;-74
2024/03/01 03:24:39;;;;;;;;;;;;;;;8.10;100.00;100601.41;5010459;28;20376;-75
2024/03/01 03:27:08;;;;;;;;;;;;;;;8.14;100.00;100591.25;5010385;28;19917;-77
2024/03/01 03:29:34;;;;;;;;;;;;;;;8.10;100.00;100588.56;5006499;28;19928;-75
2024/03/01 03:31:59;;;;;;;;;;;;;;;8.13;100.00;100592.97;5010974;28;20312;-77
2024/03/01 03:34:26;;;;;;;;;;;;;;;8.08;100.00;100572.16;5010222;28;19952;-75
2024/03/01 03:36:51;;;;;;;;;;;;;;;8.14;100.00;100563.88;5010305;28;19924;-75
2024/03/01 03:39:17;;;;;;;;;;;;;;;8.20;100.00;100556.47;5010034;28;20003;-74
2024/03/01 03:41:42;;;;;;;;;;;;;;;8.21;100.00;100536.75;5010454;28;19920;-76
2024/03/01 03:44:08;;;;;;;;;;;;;;;8.18;100.00;100527.19;5009725;28;19918;-75
2024/03/01 03:46:33;;;;;;;;;;;;;;;8.20;100.00;100520.44;5010106;28;19917;-75
2024/03/01 03:48:59;;;;;;;;;;;;;;;8.18;100.00;100501.50;5010270;28;19918;-75
2024/03/01 03:51:25;;;;;;;;;;;;;;;8.13;100.00;100505.53;5010237;28;20456;-73
2024/03/01 03:53:51;;;;;;;;;;;;;;;8.09;100.00;100519.06;5009711;28;19964;-75
2024/03/01 03:56:17;;;;;;;;;;;;;;;8.10;100.00;100529.41;5010215;28;19951;-75
2024/03/01 03:58:42;;;;;;;;;;;;;;;8.12;100.00;100544.91;5010683;28;20305;-74
2024/03/01 04:01:08;;;;;;;;;;;;;;;8.01;100.00;100534.13;5010221;28;19961;-77
2024/03/01 04:03:33;;;;;;;;;;;;;;;7.98;100.00;100522.81;5010074;28;19917;-74
2024/03/01 04:05:58;;;;;;;;;;;;;;;7.97;100.00;100511.63;5010023;28;19917;-74
2024/03/01 04:08:24;;;;;;;;;;;;;;;8.00;100.00;100514.38;5010196;28;19921;-77
2024/03/01 04:10:49;;;;;;;;;;;;;;;8.01;100.00;100515.22;5009413;28;20380;-75
2024/03/01 04:13:14;;;;;;;;;;;;;;;8.04;100.00;100529.13;5009974;28;20215;-77
2024/03/01 04:15:40;;;;;;;;;;;;;;;8.10;100.00;100528.53;5010571;28;20369;-74
2024/03/01 04:18:05;;;;;;;;;;;;;;;8.05;100.00;100510.31;5009903;28;19949;-75
2024/03/01 04:20:31;;;;;;;;;;;;;;;8.08;100.00;100507.88;5009846;28;19913;-73
2024/03/01 04:22:56;;;;;;;;;;;;;;;8.09;100.00;100506.22;4994638;28;19921;-75
2024/03/01 04:25:23;;;;;;;;;;;;;;;8.06;100.00;100517.22;5006221;28;19917;-75
2024/03/01 04:27:49;;;;;;;;;;;;;;;8.08;100.00;100507.88;5004045;28;19917;-73
2024/03/01 04:30:14;;;;;;;;;;;;;;;7.99;100.00;100498.84;5009525;28;19917;-74
2024/03/01 04:32:40;;;;;;;;;;;;;;;7.96;100.00;100507.28;4986596;28;19925;-74
2024/03/01 04:35:05;;;;;;;;;;;;;;;7.96;100.00;100504.72;4990672;28;19965;-78
2024/03/01 04:37:31;;;;;;;;;;;;;;;7.92;100.00;100498.59;4991735;28;19921;-74
2024/03/01 04:39:56;;;;;;;;;;;;;;;7.88;100.00;100501.78;4987851;28;20016;-77
2024/03/01 04:42:22;;;;;;;;;;;;;;;7.90;100.00;100501.84;4987987;28;19925;-75
2024/03/01 04:44:47;;;;;;;;;;;;;;;7.87;100.00;100505.16;4987548;28;19925;-76
2024/03/01 04:47:12;;;;;;;;;;;;;;;7.86;100.00;100507.66;4987836;28;19914;-75
2024/03/01 04:49:43;;;;;;;;;;;;;;;7.86;100.00;100497.38;4988578;28;19925;-75
2024/03/01 04:52:08;;;;;;;;;;;;;;;7.88;100.00;100506.94;4987765;28;20507;-75
2024/03/01 04:54:34;;;;;;;;;;;;;;;7.85;100.00;100506.78;4971685;28;19922;-76
2024/03/01 04:57:00;;;;;;;;;;;;;;;7.81;100.00;100504.88;4990880;28;19953;-74
2024/03/01 04:59:25;;;;;;;;;;;;;;;7.77;100.00;100513.25;4991235;28;19918;-74
2024/03/01 05:01:50;;;;;;;;;;;;;;;7.60;100.00;100518.44;4991657;28;20480;-75
2024/03/01 05:04:16;;;;;;;;;;;;;;;7.50;100.00;100513.66;4990905;28;19972;-76
2024/03/01 05:06:41;;;;;;;;;;;;;;;7.51;100.00;100510.25;4991069;28;19929;-75
2024/03/01 05:09:07;;;;;;;;;;;;;;;7.59;100.00;100506.41;4993859;28;19921;-76
2024/03/01 05:11:34;;;;;;;;;;;;;;;7.59;100.00;100501.25;5011956;28;19917;-75
2024/03/01 05:14:00;;;;;;;;;;;;;;;7.67;100.00;100501.63;5012878;28;19918;-75
2024/03/01 05:16:25;;;;;;;;;;;;;;;7.77;100.00;100513.25;5013904;28;19921;-75
2024/03/01 05:18:51;;;;;;;;;;;;;;;7.82;100.00;100518.63;5012895;28;19992;-75
2024/03/01 05:21:17;;;;;;;;;;;;;;;7.87;100.00;100524.84;4983816;28;19960;-74
2024/03/01 05:23:43;;;;;;;;;;;;;;;7.92;100.00;100529.44;5010787;28;20006;-75
2024/03/01 05:26:09;;;;;;;;;;;;;;;7.94;100.00;100543.22;5013598;28;20397;-73
2024/03/01 05:28:35;;;;;;;;;;;;;;;8.01;100.00;100548.66;5011573;28;19917;-75
2024/03/01 05:31:01;;;;;;;;;;;;;;;8.10;100.00;100555.13;5012713;28;20011;-76
2024/03/01 05:33:28;;;;;;;;;;;;;;;8.08;100.00;100561.88;5012130;28;19918;-75
2024/03/01 05:35:53;;;;;;;;;;;;;;;8.13;100.00;100569.81;5009847;28;20665;-74
2024/03/01 05:38:19;;;;;;;;;;;;;;;8.21;100.00;100562.47;5011588;28;19921;-75
2024/03/01 05:40:44;;;;;;;;;;;;;;;8.20;100.00;100563.28;5012027;28;20290;-75
2024/03/01 05:43:10;;;;;;;;;;;;;;;8.18;100.00;100552.91;5011951;28;19924;-76
2024/03/01 05:45:37;;;;;;;;;;;;;;;8.18;100.00;100546.91;5011484;28;19944;-75
2024/03/01 05:48:03;;;;;;;;;;;;;;;8.12;100.00;100537.19;5013474;28;19924;-76
2024/03/01 05:50:28;;;;;;;;;;;;;;;8.03;100.00;100532.50;5013008;28;19944;-75
2024/03/01 05:52:53;;;;;;;;;;;;;;;8.02;100.00;100527.28;5012930;28;19979;-75
2024/03/01 05:55:19;;;;;;;;;;;;;;;7.92;100.00;100532.00;5010494;28;19932;-74
2024/03/01 05:57:46;;;;;;;;;;;;;;;7.96;100.00;100527.84;5006675;28;20408;-76
2024/03/01 06:00:18;;;;;;;;;;;;;;;7.92;100.00;100526.84;5026870;28;20398;-76
2024/03/01 06:02:44;;;;;;;;;;;;;;;7.98;100.00;100525.38;4995757;28;20482;-75
2024/03/01 06:05:11;;;;;;;;;;;;;;;7.97;100.00;100528.75;5012934;28;20008;-75
2024/03/01 06:07:36;;;;;;;;;;;;;;;7.97;100.00;100533.91;5011658;28;19922;-76
2024/03/01 06:10:01;;;;;;;;;;;;;;;7.94;100.00;100542.34;5012205;28;19926;-75
2024/03/01 06:12:27;;;;;;;;;;;;;;;7.98;100.00;100540.81;5011785;28;19947;-75
2024/03/01 06:14:52;;;;;;;;;;;;;;;8.04;100.00;100551.41;5011506;28;19913;-74
2024/03/01 06:17:17;;;;;;;;;;;;;;;7.99;100.00;100547.69;5011571;28;19917;-74
2024/03/01 06:19:43;;;;;;;;;;;;;;;7.91;100.00;100537.94;5011107;28;20056;-74
2024/03/01 06:22:08;;;;;;;;;;;;;;;7.86;100.00;100529.13;5011069;28;20012;-75
2024/03/01 06:24:33;;;;;;;;;;;;;;;7.90;100.00;100520.75;5011146;28;20064;-74
2024/03/01 06:26:59;;;;;;;;;;;;;;;7.96;100.00;100516.72;5011112;28;19922;-74
2024/03/01 06:29:24;;;;;;;;;;;;;;;7.96;100.00;100533.00;5011118;28;19921;-73
2024/03/01 06:31:50;;;;;;;;;;;;;;;7.96;100.00;100525.28;5010877;28;19921;-76
2024/03/01 06:34:16;;;;;;;;;;;;;;;7.96;100.00;100529.56;5011632;28;19913;-74
2024/03/01 06:36:41;;;;;;;;;;;;;;;7.99;100.00;100530.59;5010382;28;20419;-75
2024/03/01 06:39:06;;;;;;;;;;;;;;;7.93;100.00;100536.31;5009994;28;20405;-74
2024/03/01 06:41:32;;;;;;;;;;;;;;;7.75;100.00;100540.53;5009963;28;19924;-75
2024/03/01 06:43:57;;;;;;;;;;;;;;;7.69;100.00;100548.84;5010947;28;20296;-77
2024/03/01 06:46:23;;;;;;;;;;;;;;;7.78;100.00;100551.84;5010953;28;19918;-75
2024/03/01 06:48:49;;;;;;;;;;;;;;;7.81;100.00;100565.69;5009378;28;19917;-75
2024/03/01 06:51:14;;;;;;;;;;;;;;;7.88;100.00;100578.03;5010992;28;19920;-75
2024/03/01 06:53:41;;;;;;;;;;;;;;;8.01;100.00;100584.66;5010988;28;19956;-74
2024/03/01 06:56:06;;;;;;;;;;;;;;;8.02;100.00;100582.16;5011522;28;19921;-75
2024/03/01 06:58:32;;;;;;;;;;;;;;;7.97;100.00;100585.31;5011132;28;19967;-74
2024/03/01 07:00:57;;;;;;;;;;;;;;;8.04;100.00;100585.69;4993904;28;19918;-74
2024/03/01 07:03:23;;;;;;;;;;;;;;;8.04;100.00;100574.53;5011827;28;19953;-75
2024/03/01 07:05:48;;;;;;;;;;;;;;;8.03;100.00;100575.34;5010907;28;19917;-74
2024/03/01 07:08:15;;;;;;;;;;;;;;;8.07;100.00;100574.66;5010949;28;20412;-74
2024/03/01 07:10:42;;;;;;;;;;;;;;;8.12;100.00;100575.78;5020158;28;19971;-74
2024/03/01 07:13:07;;;;;;;;;;;;;;;8.19;100.00;100562.41;5020815;28;19952;-77
2024/03/01 07:15:33;;;;;;;;;;;;;;;8.28;100.00;100569.69;5020904;28;19975;-75
2024/03/01 07:17:58;;;;;;;;;;;;;;;8.20;100.00;100573.56;5019081;28;19967;-75
2024/03/01 07:20:24;;;;;;;;;;;;;;;8.25;100.00;100565.28;5018659;28;19971;-75
2024/03/01 07:22:50;;;;;;;;;;;;;;;8.30;100.00;100565.50;5019573;28;20005;-75
2024/03/01 07:25:15;;;;;;;;;;;;;;;8.35;100.00;100575.97;5019967;28;19917;-76
2024/03/01 07:27:41;;;;;;;;;;;;;;;8.40;100.00;100571.97;5020055;28;19962;-74
2024/03/01 07:30:07;;;;;;;;;;;;;;;8.47;100.00;100573.16;5018596;28;19921;-74
2024/03/01 07:32:34;;;;;;;;;;;;;;;8.49;100.00;100566.41;5025696;28;20306;-74
2024/03/01 07:34:59;;;;;;;;;;;;;;;8.51;100.00;100570.81;5020171;28;19917;-75
2024/03/01 07:37:24;;;;;;;;;;;;;;;8.54;100.00;100581.22;5018667;28;19917;-74
2024/03/01 07:39:51;;;;;;;;;;;;;;;8.54;100.00;100575.22;5020370;28;19967;-75
2024/03/01 07:42:17;;;;;;;;;;;;;;;8.61;100.00;100572.13;5019370;28;19913;-74
2024/03/01 07:44:42;;;;;;;;;;;;;;;8.63;100.00;100574.75;5019154;28;19913;-74
2024/03/01 07:47:08;;;;;;;;;;;;;;;8.70;100.00;100579.38;5018332;28;20380;-73
2024/03/01 07:49:33;;;;;;;;;;;;;;;8.69;100.00;100582.78;5019576;28;19917;-75
2024/03/01 07:51:58;;;;;;;;;;;;;;;8.69;100.00;100581.06;5020310;28;20328;-74
2024/03/01 07:54:24;;;;;;;;;;;;;;;8.61;100.00;100574.69;5020424;28;19971;-74
2024/03/01 07:56:49;;;;;;;;;;;;;;;8.49;100.00;100581.84;5020288;28;19928;-74
2024/03/01 07:59:15;;;;;;;;;;;;;;;8.33;100.00;100569.91;5020110;28;19921;-74
2024/03/01 08:01:41;;;;;;;;;;;;;;;8.22;100.00;100577.09;5018284;28;20374;-74
2024/03/01 08:04:06;;;;;;;;;;;;;;;8.18;100.00;100578.63;5017827;28;20014;-75
2024/03/01 08:06:32;;;;;;;;;;;;;;;8.25;100.00;100575.56;5020235;28;19913;-73
2024/03/01 08:08:57;;;;;;;;;;;;;;;8.19;100.00;100570.13;5018918;28;19925;-74
2024/03/01 08:11:41;;;;;;;;;;;;;;;8.17;100.00;100565.72;5018789;28;19921;-74
2024/03/01 08:14:16;;;;;;;;;;;;;;;8.15;100.00;100565.66;5021693;28;19925;-75
2024/03/01 08:16:42;;;;;;;;;;;;;;;8.18;100.00;100554.63;5021687;28;20024;-74
2024/03/01 08:19:09;;;;;;;;;;;;;;;8.18;100.00;100554.63;5015846;28;19996;-73
2024/03/01 08:21:35;;;;;;;;;;;;;;;8.15;100.00;100555.34;5019873;28;20384;-74
2024/03/01 08:24:02;;;;;;;;;;;;;;;8.17;100.00;100558.00;5019760;28;19960;-74
2024/03/01 08:26:27;;;;;;;;;;;;;;;8.16;100.00;100552.00;5020215;28;19986;-74
2024/03/01 08:28:52;;;;;;;;;;;;;;;8.16;100.00;100557.13;5019926;28;19967;-74
2024/03/01 08:31:24;;;;;;;;;;;;;;;8.18;100.00;100559.75;5021809;28;20023;-75
2024/03/01 08:33:55;;;;;;;;;;;;;;;8.19;100.00;100548.69;4985416;28;19924;-74
2024/03/01 08:36:21;;;;;;;;;;;;;;;8.20;100.00;100551.31;5021794;28;19917;-75
2024/03/01 08:38:46;;;;;;;;;;;;;;;8.23;100.00;100550.56;5023224;28;21298;-75
2024/03/01 08:41:11;;;;;;;;;;;;;;;8.26;100.00;100553.28;5023501;28;19916;-74
2024/03/01 08:43:39;;;;;;;;;;;;;;;8.22;100.00;100549.72;5021176;28;19928;-74
2024/03/01 08:46:05;;;;;;;;;;;;;;;8.23;100.00;100554.03;5027908;28;20319;-77
2024/03/01 08:48:34;;;;;;;;;;;;;;;8.30;100.00;100552.63;5022266;28;19916;-74
2024/03/01 08:50:59;;;;;;;;;;;;;;;8.26;100.00;100555.84;5023661;28;19966;-75
2024/03/01 08:53:40;;;;;;;;;;;;;;;8.30;100.00;100544.91;5022833;28;19917;-74
2024/03/01 08:56:06;;;;;;;;;;;;;;;8.33;100.00;100544.19;5005993;28;20301;-73
2024/03/01 08:58:32;;;;;;;;;;;;;;;8.38;100.00;100542.69;5024887;28;19917;-74
2024/03/01 09:00:57;;;;;;;;;;;;;;;8.42;100.00;100537.78;5021356;28;20482;-74
2024/03/01 09:03:29;;;;;;;;;;;;;;;8.48;100.00;100547.50;5018332;28;19917;-74
2024/03/01 09:05:57;;;;;;;;;;;;;;;8.48;100.00;100556.91;5019585;28;19917;-74
2024/03/01 09:08:24;;;;;;;;;;;;;;;8.46;100.00;100544.00;5019827;28;19917;-74
2024/03/01 09:10:53;;;;;;;;;;;;;;;8.55;100.00;100543.53;5013322;28;19921;-74
2024/03/01 09:13:18;;;;;;;;;;;;;;;8.56;100.00;100551.31;5012519;28;19917;-74
2024/03/01 09:15:44;;;;;;;;;;;;;;;8.64;100.00;100550.78;5008241;28;19945;-73
2024/03/01 09:18:25;;;;;;;;;;;;;;;8.64;100.00;100556.81;4985275;28;19988;-75
2024/03/01 09:20:50;;;;;;;;;;;;;;;8.60;100.00;100549.78;5012462;28;19988;-75
2024/03/01 09:23:16;;;;;;;;;;;;;;;8.70;100.00;100545.94;5012438;28;20011;-74
2024/03/01 09:25:50;;;;;;;;;;;;;;;8.73;100.00;100534.09;5012884;28;19956;-73
2024/03/01 09:28:16;;;;;;;;;;;;;;;8.73;100.00;100523.78;5012188;28;20000;-75
2024/03/01 09:30:46;;;;;;;;;;;;;;;8.70;100.00;100528.78;5012520;28;19913;-73
2024/03/01 09:33:21;;;;;;;;;;;;;;;8.72;100.00;100554.59;5012447;28;19917;-76
2024/03/01 09:35:50;;;;;;;;;;;;;;;8.86;100.00;100543.22;5012718;28;19917;-74
2024/03/01 09:38:15;;;;;;;;;;;;;;;8.96;100.00;100529.06;5008966;28;20307;-76
2024/03/01 09:40:50;;;;;;;;;;;;;;;9.03;100.00;100538.84;5011449;28;19936;-74
2024/03/01 09:43:18;;;;;;;;;;;;;;;9.10;100.00;100533.94;5012099;28;19917;-77
2024/03/01 09:45:53;;;;;;;;;;;;;;;9.14;100.00;100536.72;5012932;28;20444;-75
2024/03/01 09:48:21;;;;;;;;;;;;;;;9.18;100.00;100542.88;5012293;28;20365;-73
2024/03/01 09:50:53;;;;;;;;;;;;;;;9.22;100.00;100540.53;5012179;28;19917;-75
2024/03/01 09:53:43;;;;;;;;;;;;;;;9.23;100.00;100547.44;5012180;28;19917;-73
2024/03/01 09:56:18;;;;;;;;;;;;;;;9.36;100.00;100532.50;5011845;28;19917;-74
2024/03/01 09:59:03;;;;;;;;;;;;;;;9.39;100.00;100524.91;5011397;28;19917;-73
2024/03/01 10:01:34;;;;;;;;;;;;;;;9.44;100.00;100523.41;5011561;28;19913;-74
2024/03/01 10:04:08;;;;;;;;;;;;;;;9.50;100.00;100533.09;5011887;28;19953;-74
2024/03/01 10:06:46;;;;;;;;;;;;;;;9.58;100.00;100528.25;5011955;28;20365;-74
2024/03/01 10:09:31;;;;;;;;;;;;;;;9.60;100.00;100532.66;5011356;28;19968;-73
2024/03/01 10:12:02;;;;;;;;;;;;;;;9.64;100.00;100525.94;5011530;28;19922;-75
2024/03/01 10:14:59;;;;;;;;;;;;;;;9.56;100.00;100512.72;5011953;28;19956;-73
2024/03/01 10:17:37;;;;;;;;;;;;;;;9.56;100.00;100525.63;4970552;28;20004;-73
2024/03/01 10:20:13;;;;;;;;;;;;;;;9.57;100.00;100511.94;4953347;28;19921;-74
2024/03/01 10:22:47;;;;;;;;;;;;;;;9.57;100.00;100511.94;4969434;28;20405;-74
2024/03/01 10:25:31;;;;;;;;;;;;;;;9.55;100.00;100517.00;4969038;28;19925;-73
2024/03/01 10:28:24;;;;;;;;;;;;;;;9.54;100.00;100520.41;4970154;28;19914;-73
2024/03/01 10:31:01;;;;;;;;;;;;;;;9.55;100.00;100522.16;4910738;29;19919;-73
2024/03/01 10:33:26;;;;;;;;;;;;;;;9.57;100.00;100518.75;4912016;29;20434;-73
2024/03/01 10:36:02;;;;;;;;;;;;;;;9.52;100.00;100515.97;4910313;29;19958;-72
2024/03/01 10:38:35;;;;;;;;;;;;;;;9.53;100.00;100502.28;4910859;29;19918;-73
2024/03/01 10:41:19;;;;;;;;;;;;;;;9.62;100.00;100513.00;4911774;29;19978;-72
2024/03/01 10:43:52;;;;;;;;;;;;;;;9.71;100.00;100515.94;4911149;29;19930;-73
2024/03/01 10:46:31;;;;;;;;;;;;;;;9.77;100.00;100499.84;4911695;29;20045;-74
2024/03/01 10:49:09;;;;;;;;;;;;;;;9.75;100.00;100504.06;4911005;29;19919;-73
2024/03/01 10:51:36;;;;;;;;;;;;;;;9.79;100.00;100482.72;4911934;29;20018;-72
2024/03/01 10:54:04;;;;;;;;;;;;;;;9.83;100.00;100494.94;4920764;29;20066;-74
2024/03/01 10:56:29;;;;;;;;;;;;;;;9.83;100.00;100471.75;4922133;29;19930;-75
2024/03/01 10:59:01;;;;;;;;;;;;;;;9.79;100.00;100462.09;4920310;29;19925;-76
2024/03/01 11:01:40;;;;;;;;;;;;;;;9.80;100.00;100474.16;4921355;29;19915;-72
2024/03/01 11:04:29;;;;;;;;;;;;;;;9.81;100.00;100478.53;4925072;29;19919;-73
2024/03/01 11:07:09;;;;;;;;;;;;;;;9.84;100.00;100478.66;4950676;28;19980;-73
2024/03/01 11:09:51;;;;;;;;;;;;;;;9.89;100.00;100473.66;4999894;28;19929;-73
2024/03/01 11:12:18;;;;;;;;;;;;;;;9.92;100.00;100475.47;4995178;28;19917;-73
2024/03/01 11:15:03;;;;;;;;;;;;;;;10.00;100.00;100454.31;4998396;28;19914;-73
2024/03/01 11:17:28;;;;;;;;;;;;;;;9.94;100.00;100448.94;4970055;28;20004;-74
2024/03/01 11:19:58;;;;;;;;;;;;;;;9.96;100.00;100457.63;5002636;28;20383;-72
2024/03/01 11:22:24;;;;;;;;;;;;;;;9.99;100.00;100444.84;4998064;28;20089;-73
2024/03/01 11:25:10;;;;;;;;;;;;;;;9.94;100.00;100430.88;4963937;28;20052;-72
2024/03/01 11:27:41;;;;;;;;;;;;;;;9.91;100.00;100427.34;5003641;28;19972;-74
2024/03/01 11:30:09;;;;;;;;;;;;;;;9.90;100.00;100412.66;4997155;28;19917;-73
2024/03/01 11:32:41;;;;;;;;;;;;;;;9.84;100.00;100413.28;4994239;28;19917;-73
2024/03/01 11:35:22;;;;;;;;;;;;;;;9.82;100.00;100405.50;5000381;28;20444;-73
2024/03/01 11:37:57;;;;;;;;;;;;;;;9.85;100.00;100407.31;4996627;28;20710;-73
2024/03/01 11:40:36;;;;;;;;;;;;;;;9.93;100.00;100402.47;5000799;28;19918;-76
2024/03/01 11:43:28;;;;;;;;;;;;;;;9.99;100.00;100394.97;4997449;28;20397;-72
2024/03/01 11:46:13;;;;;;;;;;;;;;;10.05;100.00;100400.34;5002634;28;19918;-73
2024/03/01 11:48:38;;;;;;;;;;;;;;;10.11;100.00;100394.56;5009887;28;19929;-73
2024/03/01 11:51:14;;;;;;;;;;;;;;;10.05;100.00;100392.63;4947790;28;19918;-75
2024/03/01 11:53:55;;;;;;;;;;;;;;;10.01;100.00;100398.47;5009787;28;19917;-73
2024/03/01 11:56:32;;;;;;;;;;;;;;;10.01;100.00;100396.78;5002458;28;19957;-73
2024/03/01 11:59:02;;;;;;;;;;;;;;;10.07;100.00;100402.97;5009592;28;19955;-74
2024/03/01 12:01:36;;;;;;;;;;;;;;;10.13;100.00;100386.06;5010253;28;19918;-73
2024/03/01 12:04:05;;;;;;;;;;;;;;;10.16;100.00;100385.28;5009642;28;19917;-73
2024/03/01 12:06:31;;;;;;;;;;;;;;;10.17;100.00;100353.50;5014178;28;19914;-74
2024/03/01 12:09:13;;;;;;;;;;;;;;;10.13;100.00;100369.69;5016488;28;19928;-73
2024/03/01 12:11:50;;;;;;;;;;;;;;;10.11;100.00;100348.13;5024843;28;19928;-73
2024/03/01 12:14:19;;;;;;;;;;;;;;;10.07;100.00;100344.56;5019373;28;19917;-74
2024/03/01 12:16:51;;;;;;;;;;;;;;;10.12;100.00;100355.91;5023470;28;20409;-73
2024/03/01 12:19:19;;;;;;;;;;;;;;;10.18;100.00;100352.66;5026748;28;19974;-73
2024/03/01 12:22:03;;;;;;;;;;;;;;;10.20;100.00;100340.72;5019190;28;19928;-73
2024/03/01 12:24:31;;;;;;;;;;;;;;;10.22;100.00;100341.66;5020960;28;19917;-73
2024/03/01 12:27:13;;;;;;;;;;;;;;;10.23;100.00;100355.41;5019232;28;20385;-76
2024/03/01 12:29:44;;;;;;;;;;;;;;;10.30;100.00;100347.94;5027091;28;20384;-73
2024/03/01 12:32:24;;;;;;;;;;;;;;;10.30;100.00;100347.09;5024331;28;19917;-73
2024/03/01 12:35:04;;;;;;;;;;;;;;;10.32;100.00;100355.78;5016766;28;19925;-74
2024/03/01 12:37:32;;;;;;;;;;;;;;;10.42;100.00;100351.81;5022719;28;20393;-71
2024/03/01 12:40:13;;;;;;;;;;;;;;;10.51;100.00;100352.16;5023799;28;19916;-73
2024/03/01 12:42:42;;;;;;;;;;;;;;;10.62;100.00;100363.75;4985509;28;20351;-74
2024/03/01 12:45:25;;;;;;;;;;;;;;;10.68;100.00;100356.22;5021888;28;19942;-74
2024/03/01 12:48:09;;;;;;;;;;;;;;;10.64;100.00;100366.38;5021803;28;19917;-74